sensor_id;sensor_type;location;lat;lon;timestamp;pressure;altitude;pressure_sealevel;temperature
24278;BMP280;12394;42.692;23.314;2023-04-24T00:01:15;94760.09;;;12.66
24278;BMP280;12394;42.692;23.314;2023-04-24T00:03:40;94758.13;;;12.70
24278;BMP280;12394;42.692;23.314;2023-04-24T00:06:07;94754.50;;;12.64
24278;BMP280;12394;42.692;23.314;2023-04-24T00:08:35;94743.00;;;12.58
24278;BMP280;12394;42.692;23.314;2023-04-24T00:11:01;94745.00;;;12.50
24278;BMP280;12394;42.692;23.314;2023-04-24T00:13:26;94746.84;;;12.53
24278;BMP280;12394;42.692;23.314;2023-04-24T00:15:54;94743.09;;;12.51
24278;BMP280;12394;42.692;23.314;2023-04-24T00:18:19;94752.66;;;12.41
24278;BMP280;12394;42.692;23.314;2023-04-24T00:20:44;94748.59;;;12.36
24278;BMP280;12394;42.692;23.314;2023-04-24T00:23:10;94747.63;;;12.27
24278;BMP280;12394;42.692;23.314;2023-04-24T00:25:35;94742.25;;;12.14
24278;BMP280;12394;42.692;23.314;2023-04-24T00:28:01;94736.44;;;12.03
24278;BMP280;12394;42.692;23.314;2023-04-24T00:30:26;94735.78;;;11.95
24278;BMP280;12394;42.692;23.314;2023-04-24T00:32:51;94741.78;;;11.96
24278;BMP280;12394;42.692;23.314;2023-04-24T00:35:17;94741.91;;;11.89
24278;BMP280;12394;42.692;23.314;2023-04-24T00:37:45;94744.84;;;11.91
24278;BMP280;12394;42.692;23.314;2023-04-24T00:40:10;94728.13;;;11.85
24278;BMP280;12394;42.692;23.314;2023-04-24T00:42:36;94731.41;;;11.89
24278;BMP280;12394;42.692;23.314;2023-04-24T00:45:02;94746.94;;;12.03
24278;BMP280;12394;42.692;23.314;2023-04-24T00:47:28;94742.38;;;12.07
24278;BMP280;12394;42.692;23.314;2023-04-24T00:49:54;94722.69;;;11.95
24278;BMP280;12394;42.692;23.314;2023-04-24T00:52:20;94725.81;;;12.10
24278;BMP280;12394;42.692;23.314;2023-04-24T00:54:45;94731.94;;;12.03
24278;BMP280;12394;42.692;23.314;2023-04-24T00:57:12;94731.06;;;12.10
24278;BMP280;12394;42.692;23.314;2023-04-24T00:59:39;94736.00;;;12.08
24278;BMP280;12394;42.692;23.314;2023-04-24T01:02:06;94743.50;;;12.06
24278;BMP280;12394;42.692;23.314;2023-04-24T01:04:32;94740.75;;;12.13
24278;BMP280;12394;42.692;23.314;2023-04-24T01:06:58;94721.72;;;12.09
24278;BMP280;12394;42.692;23.314;2023-04-24T01:09:24;94732.09;;;12.16
24278;BMP280;12394;42.692;23.314;2023-04-24T01:11:50;94735.88;;;12.15
24278;BMP280;12394;42.692;23.314;2023-04-24T01:14:16;94727.63;;;12.13
24278;BMP280;12394;42.692;23.314;2023-04-24T01:16:41;94720.59;;;12.10
24278;BMP280;12394;42.692;23.314;2023-04-24T01:19:07;94702.06;;;11.97
24278;BMP280;12394;42.692;23.314;2023-04-24T01:21:36;94709.53;;;11.99
24278;BMP280;12394;42.692;23.314;2023-04-24T01:24:02;94711.22;;;12.09
24278;BMP280;12394;42.692;23.314;2023-04-24T01:26:27;94708.13;;;11.94
24278;BMP280;12394;42.692;23.314;2023-04-24T01:28:53;94688.50;;;11.79
24278;BMP280;12394;42.692;23.314;2023-04-24T01:31:19;94702.19;;;11.64
24278;BMP280;12394;42.692;23.314;2023-04-24T01:33:45;94689.31;;;11.49
24278;BMP280;12394;42.692;23.314;2023-04-24T01:36:11;94714.72;;;11.52
24278;BMP280;12394;42.692;23.314;2023-04-24T01:38:37;94704.34;;;11.45
24278;BMP280;12394;42.692;23.314;2023-04-24T01:41:02;94708.19;;;11.37
24278;BMP280;12394;42.692;23.314;2023-04-24T01:43:28;94693.38;;;11.27
24278;BMP280;12394;42.692;23.314;2023-04-24T01:45:54;94703.44;;;11.29
24278;BMP280;12394;42.692;23.314;2023-04-24T01:48:19;94702.06;;;11.21
24278;BMP280;12394;42.692;23.314;2023-04-24T01:50:45;94690.59;;;11.11
24278;BMP280;12394;42.692;23.314;2023-04-24T01:53:11;94693.66;;;11.06
24278;BMP280;12394;42.692;23.314;2023-04-24T01:55:36;94685.13;;;11.02
24278;BMP280;12394;42.692;23.314;2023-04-24T01:58:02;94673.28;;;10.90
24278;BMP280;12394;42.692;23.314;2023-04-24T02:00:27;94689.31;;;10.96
24278;BMP280;12394;42.692;23.314;2023-04-24T02:02:53;94699.13;;;10.88
24278;BMP280;12394;42.692;23.314;2023-04-24T02:05:18;94701.38;;;10.86
24278;BMP280;12394;42.692;23.314;2023-04-24T02:07:44;94695.88;;;10.81
24278;BMP280;12394;42.692;23.314;2023-04-24T02:10:10;94702.88;;;10.87
24278;BMP280;12394;42.692;23.314;2023-04-24T02:12:35;94694.69;;;10.85
24278;BMP280;12394;42.692;23.314;2023-04-24T02:15:01;94695.41;;;10.86
24278;BMP280;12394;42.692;23.314;2023-04-24T02:17:26;94694.63;;;10.89
24278;BMP280;12394;42.692;23.314;2023-04-24T02:19:52;94704.34;;;10.88
24278;BMP280;12394;42.692;23.314;2023-04-24T02:22:17;94692.88;;;10.79
24278;BMP280;12394;42.692;23.314;2023-04-24T02:24:42;94681.38;;;10.73
24278;BMP280;12394;42.692;23.314;2023-04-24T02:27:08;94699.56;;;10.83
24278;BMP280;12394;42.692;23.314;2023-04-24T02:29:33;94693.59;;;10.83
24278;BMP280;12394;42.692;23.314;2023-04-24T02:31:59;94700.31;;;10.84
24278;BMP280;12394;42.692;23.314;2023-04-24T02:34:24;94679.81;;;10.79
24278;BMP280;12394;42.692;23.314;2023-04-24T02:36:50;94681.59;;;10.85
24278;BMP280;12394;42.692;23.314;2023-04-24T02:39:15;94661.47;;;10.79
24278;BMP280;12394;42.692;23.314;2023-04-24T02:41:44;94648.78;;;10.77
24278;BMP280;12394;42.692;23.314;2023-04-24T02:44:09;94663.22;;;10.89
24278;BMP280;12394;42.692;23.314;2023-04-24T02:46:35;94668.50;;;10.85
24278;BMP280;12394;42.692;23.314;2023-04-24T02:49:00;94671.53;;;10.84
24278;BMP280;12394;42.692;23.314;2023-04-24T02:51:25;94664.78;;;10.83
24278;BMP280;12394;42.692;23.314;2023-04-24T02:53:52;94664.00;;;10.86
24278;BMP280;12394;42.692;23.314;2023-04-24T02:56:17;94665.94;;;10.82
24278;BMP280;12394;42.692;23.314;2023-04-24T02:58:42;94667.84;;;10.78
24278;BMP280;12394;42.692;23.314;2023-04-24T03:01:08;94657.38;;;10.78
24278;BMP280;12394;42.692;23.314;2023-04-24T03:03:35;94662.63;;;10.78
24278;BMP280;12394;42.692;23.314;2023-04-24T03:06:01;94667.09;;;10.77
24278;BMP280;12394;42.692;23.314;2023-04-24T03:08:26;94673.50;;;10.73
24278;BMP280;12394;42.692;23.314;2023-04-24T03:10:52;94674.56;;;10.79
24278;BMP280;12394;42.692;23.314;2023-04-24T03:13:17;94673.44;;;10.80
24278;BMP280;12394;42.692;23.314;2023-04-24T03:15:42;94670.47;;;10.78
24278;BMP280;12394;42.692;23.314;2023-04-24T03:18:08;94675.00;;;10.74
24278;BMP280;12394;42.692;23.314;2023-04-24T03:20:33;94660.47;;;10.69
24278;BMP280;12394;42.692;23.314;2023-04-24T03:22:59;94683.91;;;10.80
24278;BMP280;12394;42.692;23.314;2023-04-24T03:25:24;94680.16;;;10.81
24278;BMP280;12394;42.692;23.314;2023-04-24T03:27:50;94670.91;;;10.73
24278;BMP280;12394;42.692;23.314;2023-04-24T03:30:15;94693.59;;;10.83
24278;BMP280;12394;42.692;23.314;2023-04-24T03:32:40;94673.81;;;10.78
24278;BMP280;12394;42.692;23.314;2023-04-24T03:35:07;94686.44;;;10.87
24278;BMP280;12394;42.692;23.314;2023-04-24T03:37:33;94677.41;;;10.91
24278;BMP280;12394;42.692;23.314;2023-04-24T03:39:59;94641.84;;;10.63
24278;BMP280;12394;42.692;23.314;2023-04-24T03:42:24;94678.53;;;10.90
24278;BMP280;12394;42.692;23.314;2023-04-24T03:44:49;94674.03;;;10.91
24278;BMP280;12394;42.692;23.314;2023-04-24T03:47:15;94679.25;;;10.94
24278;BMP280;12394;42.692;23.314;2023-04-24T03:49:40;94678.13;;;10.92
24278;BMP280;12394;42.692;23.314;2023-04-24T03:52:06;94689.31;;;10.96
24278;BMP280;12394;42.692;23.314;2023-04-24T03:54:31;94674.34;;;10.96
24278;BMP280;12394;42.692;23.314;2023-04-24T03:56:56;94676.56;;;10.98
24278;BMP280;12394;42.692;23.314;2023-04-24T03:59:22;94675.09;;;10.97
24278;BMP280;12394;42.692;23.314;2023-04-24T04:01:47;94679.88;;;11.02
24278;BMP280;12394;42.692;23.314;2023-04-24T04:04:13;94679.78;;;11.09
24278;BMP280;12394;42.692;23.314;2023-04-24T04:06:38;94687.56;;;11.16
24278;BMP280;12394;42.692;23.314;2023-04-24T04:09:04;94682.63;;;11.22
24278;BMP280;12394;42.692;23.314;2023-04-24T04:11:30;94676.28;;;11.19
24278;BMP280;12394;42.692;23.314;2023-04-24T04:13:56;94690.34;;;11.29
24278;BMP280;12394;42.692;23.314;2023-04-24T04:16:22;94669.22;;;11.43
24278;BMP280;12394;42.692;23.314;2023-04-24T04:18:48;94679.25;;;11.48
24278;BMP280;12394;42.692;23.314;2023-04-24T04:21:13;94668.47;;;11.42
24278;BMP280;12394;42.692;23.314;2023-04-24T04:23:38;94682.47;;;11.55
24278;BMP280;12394;42.692;23.314;2023-04-24T04:26:05;94682.72;;;11.65
24278;BMP280;12394;42.692;23.314;2023-04-24T04:28:30;94688.97;;;11.47
24278;BMP280;12394;42.692;23.314;2023-04-24T04:30:57;94682.69;;;11.41
24278;BMP280;12394;42.692;23.314;2023-04-24T04:33:23;94700.03;;;11.32
24278;BMP280;12394;42.692;23.314;2023-04-24T04:35:49;94701.38;;;11.43
24278;BMP280;12394;42.692;23.314;2023-04-24T04:38:15;94708.75;;;11.52
24278;BMP280;12394;42.692;23.314;2023-04-24T04:40:42;94701.63;;;11.52
24278;BMP280;12394;42.692;23.314;2023-04-24T04:43:07;94699.94;;;11.66
24278;BMP280;12394;42.692;23.314;2023-04-24T04:45:33;94715.91;;;11.75
24278;BMP280;12394;42.692;23.314;2023-04-24T04:47:59;94706.34;;;11.61
24278;BMP280;12394;42.692;23.314;2023-04-24T04:50:26;94708.91;;;11.65
24278;BMP280;12394;42.692;23.314;2023-04-24T04:52:52;94711.94;;;11.63
24278;BMP280;12394;42.692;23.314;2023-04-24T04:55:17;94713.31;;;11.71
24278;BMP280;12394;42.692;23.314;2023-04-24T04:57:45;94689.38;;;11.69
24278;BMP280;12394;42.692;23.314;2023-04-24T05:00:11;94723.25;;;11.83
24278;BMP280;12394;42.692;23.314;2023-04-24T05:02:36;94723.94;;;11.87
24278;BMP280;12394;42.692;23.314;2023-04-24T05:05:02;94722.31;;;11.97
24278;BMP280;12394;42.692;23.314;2023-04-24T05:07:27;94717.66;;;12.04
24278;BMP280;12394;42.692;23.314;2023-04-24T05:09:53;94721.94;;;12.18
24278;BMP280;12394;42.692;23.314;2023-04-24T05:12:18;94721.47;;;12.23
24278;BMP280;12394;42.692;23.314;2023-04-24T05:14:43;94718.41;;;12.28
24278;BMP280;12394;42.692;23.314;2023-04-24T05:17:09;94695.59;;;12.25
24278;BMP280;12394;42.692;23.314;2023-04-24T05:19:35;94715.19;;;12.40
24278;BMP280;12394;42.692;23.314;2023-04-24T05:22:03;94713.66;;;12.43
24278;BMP280;12394;42.692;23.314;2023-04-24T05:24:29;94713.66;;;12.43
24278;BMP280;12394;42.692;23.314;2023-04-24T05:26:54;94709.94;;;12.40
24278;BMP280;12394;42.692;23.314;2023-04-24T05:29:20;94714.09;;;12.38
24278;BMP280;12394;42.692;23.314;2023-04-24T05:31:46;94703.75;;;12.31
24278;BMP280;12394;42.692;23.314;2023-04-24T05:34:11;94719.97;;;12.45
24278;BMP280;12394;42.692;23.314;2023-04-24T05:36:37;94705.69;;;12.46
24278;BMP280;12394;42.692;23.314;2023-04-24T05:39:02;94710.53;;;12.68
24278;BMP280;12394;42.692;23.314;2023-04-24T05:41:30;94709.28;;;12.76
24278;BMP280;12394;42.692;23.314;2023-04-24T05:43:55;94703.88;;;12.63
24278;BMP280;12394;42.692;23.314;2023-04-24T05:46:21;94702.00;;;12.64
24278;BMP280;12394;42.692;23.314;2023-04-24T05:48:46;94718.50;;;12.84
24278;BMP280;12394;42.692;23.314;2023-04-24T05:51:12;94723.59;;;12.91
24278;BMP280;12394;42.692;23.314;2023-04-24T05:53:37;94725.63;;;13.03
24278;BMP280;12394;42.692;23.314;2023-04-24T05:56:03;94730.03;;;12.90
24278;BMP280;12394;42.692;23.314;2023-04-24T05:58:28;94717.06;;;12.99
24278;BMP280;12394;42.692;23.314;2023-04-24T06:00:53;94717.00;;;13.03
24278;BMP280;12394;42.692;23.314;2023-04-24T06:03:20;94708.44;;;13.18
24278;BMP280;12394;42.692;23.314;2023-04-24T06:05:45;94720.63;;;13.28
24278;BMP280;12394;42.692;23.314;2023-04-24T06:08:11;94709.88;;;13.39
24278;BMP280;12394;42.692;23.314;2023-04-24T06:10:36;94707.44;;;13.48
24278;BMP280;12394;42.692;23.314;2023-04-24T06:13:02;94713.09;;;13.63
24278;BMP280;12394;42.692;23.314;2023-04-24T06:15:30;94708.00;;;13.72
24278;BMP280;12394;42.692;23.314;2023-04-24T06:17:58;94705.97;;;13.79
24278;BMP280;12394;42.692;23.314;2023-04-24T06:20:24;94716.72;;;14.01
24278;BMP280;12394;42.692;23.314;2023-04-24T06:22:50;94712.25;;;14.31
24278;BMP280;12394;42.692;23.314;2023-04-24T06:25:15;94715.59;;;14.31
24278;BMP280;12394;42.692;23.314;2023-04-24T06:27:41;94716.59;;;14.37
24278;BMP280;12394;42.692;23.314;2023-04-24T06:30:07;94711.22;;;14.41
24278;BMP280;12394;42.692;23.314;2023-04-24T06:32:32;94723.44;;;14.63
24278;BMP280;12394;42.692;23.314;2023-04-24T06:34:57;94714.78;;;14.63
24278;BMP280;12394;42.692;23.314;2023-04-24T06:37:23;94723.91;;;14.87
24278;BMP280;12394;42.692;23.314;2023-04-24T06:39:49;94724.91;;;14.93
24278;BMP280;12394;42.692;23.314;2023-04-24T06:42:14;94719.03;;;15.14
24278;BMP280;12394;42.692;23.314;2023-04-24T06:44:39;94733.28;;;15.42
24278;BMP280;12394;42.692;23.314;2023-04-24T06:47:09;94738.16;;;15.69
24278;BMP280;12394;42.692;23.314;2023-04-24T06:49:37;94724.88;;;15.60
24278;BMP280;12394;42.692;23.314;2023-04-24T06:52:02;94721.72;;;15.65
24278;BMP280;12394;42.692;23.314;2023-04-24T06:54:29;94728.03;;;15.68
24278;BMP280;12394;42.692;23.314;2023-04-24T06:57:14;94722.41;;;15.91
24278;BMP280;12394;42.692;23.314;2023-04-24T06:59:41;94704.78;;;15.88
24278;BMP280;12394;42.692;23.314;2023-04-24T07:02:06;94718.69;;;16.01
24278;BMP280;12394;42.692;23.314;2023-04-24T07:04:32;94699.34;;;16.17
24278;BMP280;12394;42.692;23.314;2023-04-24T07:06:57;94710.31;;;16.50
24278;BMP280;12394;42.692;23.314;2023-04-24T07:09:24;94712.53;;;16.95
24278;BMP280;12394;42.692;23.314;2023-04-24T07:11:53;94707.78;;;17.42
24278;BMP280;12394;42.692;23.314;2023-04-24T07:14:19;94706.22;;;17.94
24278;BMP280;12394;42.692;23.314;2023-04-24T07:16:45;94713.34;;;18.60
24278;BMP280;12394;42.692;23.314;2023-04-24T07:19:14;94708.81;;;19.63
24278;BMP280;12394;42.692;23.314;2023-04-24T07:21:40;94710.94;;;20.54
24278;BMP280;12394;42.692;23.314;2023-04-24T07:24:05;94709.13;;;21.63
24278;BMP280;12394;42.692;23.314;2023-04-24T07:26:34;94695.47;;;22.31
24278;BMP280;12394;42.692;23.314;2023-04-24T07:29:00;94697.94;;;22.54
24278;BMP280;12394;42.692;23.314;2023-04-24T07:31:25;94693.13;;;22.58
24278;BMP280;12394;42.692;23.314;2023-04-24T07:33:51;94692.09;;;22.76
24278;BMP280;12394;42.692;23.314;2023-04-24T07:36:16;94692.88;;;23.71
24278;BMP280;12394;42.692;23.314;2023-04-24T07:38:47;94689.34;;;23.54
24278;BMP280;12394;42.692;23.314;2023-04-24T07:41:13;94687.63;;;23.87
24278;BMP280;12394;42.692;23.314;2023-04-24T07:43:39;94687.81;;;24.21
24278;BMP280;12394;42.692;23.314;2023-04-24T07:46:05;94687.50;;;24.13
24278;BMP280;12394;42.692;23.314;2023-04-24T07:48:33;94675.75;;;24.48
24278;BMP280;12394;42.692;23.314;2023-04-24T07:51:01;94686.53;;;24.87
24278;BMP280;12394;42.692;23.314;2023-04-24T07:53:27;94687.03;;;25.13
24278;BMP280;12394;42.692;23.314;2023-04-24T07:55:54;94680.00;;;25.32
24278;BMP280;12394;42.692;23.314;2023-04-24T07:58:20;94682.91;;;25.51
24278;BMP280;12394;42.692;23.314;2023-04-24T08:00:45;94675.19;;;26.27
24278;BMP280;12394;42.692;23.314;2023-04-24T08:03:10;94672.97;;;26.26
24278;BMP280;12394;42.692;23.314;2023-04-24T08:05:37;94673.84;;;26.50
24278;BMP280;12394;42.692;23.314;2023-04-24T08:08:03;94670.00;;;26.87
24278;BMP280;12394;42.692;23.314;2023-04-24T08:10:28;94677.53;;;27.24
24278;BMP280;12394;42.692;23.314;2023-04-24T08:12:53;94673.28;;;27.64
24278;BMP280;12394;42.692;23.314;2023-04-24T08:15:20;94661.97;;;28.38
24278;BMP280;12394;42.692;23.314;2023-04-24T08:17:46;94666.47;;;28.67
24278;BMP280;12394;42.692;23.314;2023-04-24T08:20:12;94669.41;;;28.88
24278;BMP280;12394;42.692;23.314;2023-04-24T08:22:41;94663.25;;;29.06
24278;BMP280;12394;42.692;23.314;2023-04-24T08:25:07;94660.66;;;29.59
24278;BMP280;12394;42.692;23.314;2023-04-24T08:27:32;94652.16;;;29.55
24278;BMP280;12394;42.692;23.314;2023-04-24T08:29:58;94651.13;;;30.24
24278;BMP280;12394;42.692;23.314;2023-04-24T08:32:26;94651.81;;;30.84
24278;BMP280;12394;42.692;23.314;2023-04-24T08:35:01;94646.28;;;31.31
24278;BMP280;12394;42.692;23.314;2023-04-24T08:37:29;94652.03;;;31.28
24278;BMP280;12394;42.692;23.314;2023-04-24T08:39:55;94639.13;;;31.34
24278;BMP280;12394;42.692;23.314;2023-04-24T08:42:21;94646.88;;;31.58
24278;BMP280;12394;42.692;23.314;2023-04-24T08:44:48;94618.25;;;31.99
24278;BMP280;12394;42.692;23.314;2023-04-24T08:47:34;94629.56;;;32.26
24278;BMP280;12394;42.692;23.314;2023-04-24T08:50:02;94629.03;;;32.78
24278;BMP280;12394;42.692;23.314;2023-04-24T08:52:28;94620.34;;;33.63
24278;BMP280;12394;42.692;23.314;2023-04-24T08:54:54;94621.47;;;33.68
24278;BMP280;12394;42.692;23.314;2023-04-24T08:57:20;94618.56;;;33.66
24278;BMP280;12394;42.692;23.314;2023-04-24T08:59:46;94622.06;;;34.14
24278;BMP280;12394;42.692;23.314;2023-04-24T09:02:13;94619.53;;;34.08
24278;BMP280;12394;42.692;23.314;2023-04-24T09:04:40;94602.38;;;34.46
24278;BMP280;12394;42.692;23.314;2023-04-24T09:07:06;94610.06;;;34.64
24278;BMP280;12394;42.692;23.314;2023-04-24T09:09:32;94601.63;;;35.52
24278;BMP280;12394;42.692;23.314;2023-04-24T09:11:58;94594.06;;;36.02
24278;BMP280;12394;42.692;23.314;2023-04-24T09:14:23;94587.63;;;36.51
24278;BMP280;12394;42.692;23.314;2023-04-24T09:16:49;94588.81;;;35.62
24278;BMP280;12394;42.692;23.314;2023-04-24T09:19:15;94584.19;;;35.38
24278;BMP280;12394;42.692;23.314;2023-04-24T09:21:40;94590.19;;;33.06
24278;BMP280;12394;42.692;23.314;2023-04-24T09:24:18;94573.94;;;32.91
24278;BMP280;12394;42.692;23.314;2023-04-24T09:26:45;94571.16;;;32.60
24278;BMP280;12394;42.692;23.314;2023-04-24T09:29:15;94564.59;;;32.26
24278;BMP280;12394;42.692;23.314;2023-04-24T09:31:42;94572.84;;;35.66
24278;BMP280;12394;42.692;23.314;2023-04-24T09:34:08;94567.72;;;34.86
24278;BMP280;12394;42.692;23.314;2023-04-24T09:36:38;94552.00;;;35.95
24278;BMP280;12394;42.692;23.314;2023-04-24T09:39:05;94556.47;;;36.00
24278;BMP280;12394;42.692;23.314;2023-04-24T09:41:32;94567.88;;;35.72
24278;BMP280;12394;42.692;23.314;2023-04-24T09:44:11;94551.59;;;34.56
24278;BMP280;12394;42.692;23.314;2023-04-24T09:46:37;94564.38;;;34.38
24278;BMP280;12394;42.692;23.314;2023-04-24T09:49:11;94560.31;;;36.15
24278;BMP280;12394;42.692;23.314;2023-04-24T09:51:37;94553.66;;;35.39
24278;BMP280;12394;42.692;23.314;2023-04-24T09:54:04;94541.59;;;36.01
24278;BMP280;12394;42.692;23.314;2023-04-24T09:56:42;94542.16;;;36.27
24278;BMP280;12394;42.692;23.314;2023-04-24T09:59:08;94537.94;;;38.31
24278;BMP280;12394;42.692;23.314;2023-04-24T10:01:34;94543.31;;;37.91
24278;BMP280;12394;42.692;23.314;2023-04-24T10:04:00;94522.47;;;37.37
24278;BMP280;12394;42.692;23.314;2023-04-24T10:06:35;94528.97;;;37.61
24278;BMP280;12394;42.692;23.314;2023-04-24T10:09:01;94539.41;;;38.72
24278;BMP280;12394;42.692;23.314;2023-04-24T10:11:27;94507.06;;;37.13
24278;BMP280;12394;42.692;23.314;2023-04-24T10:13:53;94510.13;;;37.36
24278;BMP280;12394;42.692;23.314;2023-04-24T10:16:20;94504.97;;;37.69
24278;BMP280;12394;42.692;23.314;2023-04-24T10:18:48;94500.91;;;37.13
24278;BMP280;12394;42.692;23.314;2023-04-24T10:21:15;94498.97;;;38.21
24278;BMP280;12394;42.692;23.314;2023-04-24T10:23:41;94495.47;;;36.76
24278;BMP280;12394;42.692;23.314;2023-04-24T10:26:09;94494.00;;;37.31
24278;BMP280;12394;42.692;23.314;2023-04-24T10:28:36;94494.66;;;36.83
24278;BMP280;12394;42.692;23.314;2023-04-24T10:31:01;94488.34;;;36.90
24278;BMP280;12394;42.692;23.314;2023-04-24T10:33:29;94483.47;;;35.72
24278;BMP280;12394;42.692;23.314;2023-04-24T10:35:55;94487.94;;;34.09
24278;BMP280;12394;42.692;23.314;2023-04-24T10:38:26;94478.66;;;33.80
24278;BMP280;12394;42.692;23.314;2023-04-24T10:41:10;94476.84;;;31.26
24278;BMP280;12394;42.692;23.314;2023-04-24T10:43:40;94467.81;;;29.45
24278;BMP280;12394;42.692;23.314;2023-04-24T10:46:06;94453.44;;;28.58
24278;BMP280;12394;42.692;23.314;2023-04-24T10:48:33;94454.19;;;27.76
24278;BMP280;12394;42.692;23.314;2023-04-24T10:50:58;94451.75;;;27.16
24278;BMP280;12394;42.692;23.314;2023-04-24T10:53:27;94448.63;;;27.31
24278;BMP280;12394;42.692;23.314;2023-04-24T10:56:04;94446.75;;;26.77
24278;BMP280;12394;42.692;23.314;2023-04-24T10:58:41;94447.97;;;26.22
24278;BMP280;12394;42.692;23.314;2023-04-24T11:01:26;94456.31;;;25.72
24278;BMP280;12394;42.692;23.314;2023-04-24T11:04:22;94456.88;;;24.91
24278;BMP280;12394;42.692;23.314;2023-04-24T11:06:54;94450.38;;;24.19
24278;BMP280;12394;42.692;23.314;2023-04-24T11:09:20;94451.28;;;23.88
24278;BMP280;12394;42.692;23.314;2023-04-24T11:11:46;94455.25;;;23.39
24278;BMP280;12394;42.692;23.314;2023-04-24T11:14:15;94459.47;;;23.03
24278;BMP280;12394;42.692;23.314;2023-04-24T11:19:10;94469.19;;;22.33
24278;BMP280;12394;42.692;23.314;2023-04-24T11:24:26;94485.78;;;21.24
24278;BMP280;12394;42.692;23.314;2023-04-24T11:26:57;94516.06;;;20.04
24278;BMP280;12394;42.692;23.314;2023-04-24T11:29:38;94492.25;;;19.18
24278;BMP280;12394;42.692;23.314;2023-04-24T11:32:30;94492.59;;;19.11
24278;BMP280;12394;42.692;23.314;2023-04-24T11:35:06;94490.59;;;19.83
24278;BMP280;12394;42.692;23.314;2023-04-24T11:37:37;94492.09;;;20.28
24278;BMP280;12394;42.692;23.314;2023-04-24T11:40:05;94475.75;;;20.64
24278;BMP280;12394;42.692;23.314;2023-04-24T11:42:35;94484.38;;;20.59
24278;BMP280;12394;42.692;23.314;2023-04-24T11:45:01;94428.06;;;20.40
24278;BMP280;12394;42.692;23.314;2023-04-24T11:47:31;94467.34;;;20.51
24278;BMP280;12394;42.692;23.314;2023-04-24T11:49:59;94470.28;;;20.53
24278;BMP280;12394;42.692;23.314;2023-04-24T11:52:26;94451.06;;;20.44
24278;BMP280;12394;42.692;23.314;2023-04-24T11:54:51;94467.88;;;20.70
24278;BMP280;12394;42.692;23.314;2023-04-24T11:57:19;94458.59;;;21.00
24278;BMP280;12394;42.692;23.314;2023-04-24T11:59:46;94460.09;;;21.21
24278;BMP280;12394;42.692;23.314;2023-04-24T12:02:24;94460.34;;;21.44
24278;BMP280;12394;42.692;23.314;2023-04-24T12:04:52;94425.97;;;21.66
24278;BMP280;12394;42.692;23.314;2023-04-24T12:07:17;94419.91;;;21.91
24278;BMP280;12394;42.692;23.314;2023-04-24T12:09:44;94438.47;;;22.06
24278;BMP280;12394;42.692;23.314;2023-04-24T12:12:11;94429.63;;;21.94
24278;BMP280;12394;42.692;23.314;2023-04-24T12:14:54;94435.28;;;22.02
24278;BMP280;12394;42.692;23.314;2023-04-24T12:17:31;94430.31;;;21.89
24278;BMP280;12394;42.692;23.314;2023-04-24T12:19:59;94425.91;;;21.86
24278;BMP280;12394;42.692;23.314;2023-04-24T12:22:25;94436.31;;;21.84
24278;BMP280;12394;42.692;23.314;2023-04-24T12:29:56;94397.94;;;21.70
24278;BMP280;12394;42.692;23.314;2023-04-24T12:32:23;94409.94;;;22.12
24278;BMP280;12394;42.692;23.314;2023-04-24T12:34:52;94398.78;;;22.13
24278;BMP280;12394;42.692;23.314;2023-04-24T12:37:18;94386.72;;;22.18
24278;BMP280;12394;42.692;23.314;2023-04-24T12:40:03;94388.31;;;22.41
24278;BMP280;12394;42.692;23.314;2023-04-24T12:42:31;94381.78;;;22.79
24278;BMP280;12394;42.692;23.314;2023-04-24T12:44:58;94384.41;;;22.74
24278;BMP280;12394;42.692;23.314;2023-04-24T12:47:25;94374.09;;;23.03
24278;BMP280;12394;42.692;23.314;2023-04-24T12:49:51;94370.41;;;22.84
24278;BMP280;12394;42.692;23.314;2023-04-24T12:52:18;94357.53;;;22.40
24278;BMP280;12394;42.692;23.314;2023-04-24T12:54:48;94360.63;;;22.28
24278;BMP280;12394;42.692;23.314;2023-04-24T12:57:13;94355.03;;;22.26
24278;BMP280;12394;42.692;23.314;2023-04-24T12:59:39;94343.94;;;21.96
24278;BMP280;12394;42.692;23.314;2023-04-24T13:02:05;94341.28;;;21.96
24278;BMP280;12394;42.692;23.314;2023-04-24T13:04:31;94339.84;;;22.00
24278;BMP280;12394;42.692;23.314;2023-04-24T13:06:57;94330.69;;;22.07
24278;BMP280;12394;42.692;23.314;2023-04-24T13:09:22;94325.38;;;22.07
24278;BMP280;12394;42.692;23.314;2023-04-24T13:11:49;94313.84;;;22.27
24278;BMP280;12394;42.692;23.314;2023-04-24T13:14:15;94304.25;;;22.46
24278;BMP280;12394;42.692;23.314;2023-04-24T13:16:40;94285.81;;;22.42
24278;BMP280;12394;42.692;23.314;2023-04-24T13:19:05;94320.94;;;22.89
24278;BMP280;12394;42.692;23.314;2023-04-24T13:21:31;94315.13;;;22.96
24278;BMP280;12394;42.692;23.314;2023-04-24T13:23:57;94317.56;;;22.94
24278;BMP280;12394;42.692;23.314;2023-04-24T13:26:22;94313.25;;;23.35
24278;BMP280;12394;42.692;23.314;2023-04-24T13:28:48;94312.09;;;23.64
24278;BMP280;12394;42.692;23.314;2023-04-24T13:31:14;94305.78;;;23.89
24278;BMP280;12394;42.692;23.314;2023-04-24T13:33:39;94300.91;;;24.05
24278;BMP280;12394;42.692;23.314;2023-04-24T13:36:06;94288.78;;;23.92
24278;BMP280;12394;42.692;23.314;2023-04-24T13:38:51;94290.69;;;24.03
24278;BMP280;12394;42.692;23.314;2023-04-24T13:41:17;94282.97;;;23.88
24278;BMP280;12394;42.692;23.314;2023-04-24T13:43:42;94286.59;;;23.97
24278;BMP280;12394;42.692;23.314;2023-04-24T13:46:08;94271.78;;;23.96
24278;BMP280;12394;42.692;23.314;2023-04-24T13:48:34;94285.59;;;24.11
24278;BMP280;12394;42.692;23.314;2023-04-24T13:50:59;94281.94;;;24.14
24278;BMP280;12394;42.692;23.314;2023-04-24T13:53:25;94270.50;;;24.13
24278;BMP280;12394;42.692;23.314;2023-04-24T13:55:50;94270.50;;;24.13
24278;BMP280;12394;42.692;23.314;2023-04-24T13:58:16;94259.34;;;24.15
24278;BMP280;12394;42.692;23.314;2023-04-24T14:00:41;94256.22;;;24.16
24278;BMP280;12394;42.692;23.314;2023-04-24T14:03:06;94254.72;;;24.10
24278;BMP280;12394;42.692;23.314;2023-04-24T14:05:32;94240.91;;;23.94